createdAt,value
2022-08-23T00:02:02.268Z,101468.75
2022-08-23T00:04:34.999Z,101468.81
2022-08-23T00:07:02.668Z,101470.28
2022-08-23T00:09:29.484Z,101466.53
2022-08-23T00:12:19.146Z,101468.44
2022-08-23T00:14:48.477Z,101452.03
2022-08-23T00:17:34.560Z,101468.63
2022-08-23T00:20:08.860Z,101468.63
2022-08-23T00:22:36.120Z,101468.81
2022-08-23T00:25:03.270Z,101466.09
2022-08-23T00:27:30.095Z,101457.56
2022-08-23T00:29:57.547Z,101461.56
2022-08-23T00:32:32.628Z,101456.34
2022-08-23T00:34:59.804Z,101459.75
2022-08-23T00:37:26.978Z,101460.22
2022-08-23T00:39:53.870Z,101457.00
2022-08-23T00:42:41.947Z,101461.13
2022-08-23T00:45:28.103Z,101450.78
2022-08-23T00:47:55.043Z,101450.31
2022-08-23T00:50:45.102Z,101446.00
2022-08-23T00:53:23.070Z,101452.53
2022-08-23T00:55:52.568Z,101438.50
2022-08-23T00:58:20.782Z,101446.34
2022-08-23T01:00:50.098Z,101451.41
2022-08-23T01:03:17.990Z,101437.94
2022-08-23T01:06:02.611Z,101449.28
2022-08-23T01:08:30.122Z,101437.19
2022-08-23T01:11:11.762Z,101437.63
2022-08-23T01:14:00.782Z,101431.94
2022-08-23T01:16:36.664Z,101435.34
2022-08-23T01:19:05.467Z,101440.28
2022-08-23T01:21:41.218Z,101445.28
2022-08-23T01:24:09.183Z,101438.25
2022-08-23T01:26:45.062Z,101434.75
2022-08-23T01:29:11.905Z,101442.16
2022-08-23T01:31:40.661Z,101434.31
2022-08-23T01:34:10.726Z,101454.66
2022-08-23T01:36:38.064Z,101453.13
2022-08-23T01:39:05.943Z,101453.56
2022-08-23T01:41:33.003Z,101447.13
2022-08-23T01:44:02.300Z,101454.63
2022-08-23T01:46:29.205Z,101448.31
2022-08-23T01:48:56.066Z,101453.06
2022-08-23T01:51:24.009Z,101444.84
2022-08-23T01:53:50.993Z,101441.91
2022-08-23T01:56:38.133Z,101443.38
2022-08-23T01:59:07.574Z,101464.59
2022-08-23T02:01:34.521Z,101463.56
2022-08-23T02:04:04.680Z,101461.19
2022-08-23T02:06:32.436Z,101465.13
2022-08-23T02:09:03.463Z,101462.25
2022-08-23T02:11:35.506Z,101451.31
2022-08-23T02:14:07.574Z,101457.13
2022-08-23T02:16:53.740Z,101456.16
2022-08-23T02:19:30.046Z,101455.78
2022-08-23T02:21:56.907Z,101446.78
2022-08-23T02:24:25.112Z,101448.00
2022-08-23T02:26:56.690Z,101447.63
2022-08-23T02:29:24.427Z,101449.66
2022-08-23T02:31:51.410Z,101434.56
2022-08-23T02:34:18.529Z,101455.50
2022-08-23T02:36:45.507Z,101449.22
2022-08-23T02:39:12.978Z,101453.44
2022-08-23T02:41:41.311Z,101442.50
2022-08-23T02:44:08.298Z,101460.38
2022-08-23T02:46:35.649Z,101444.72
2022-08-23T02:49:02.792Z,101452.69
2022-08-23T02:51:29.724Z,101458.19
2022-08-23T02:53:56.726Z,101452.88
2022-08-23T02:56:23.606Z,101438.94
2022-08-23T02:58:54.450Z,101439.63
2022-08-23T03:01:25.286Z,101435.97
2022-08-23T03:03:52.311Z,101435.56
2022-08-23T03:06:25.954Z,101448.13
2022-08-23T03:08:54.406Z,101457.38
2022-08-23T03:11:22.071Z,101454.53
2022-08-23T03:13:49.308Z,101457.00
2022-08-23T03:16:16.944Z,101442.06
2022-08-23T03:18:43.906Z,101450.03
2022-08-23T03:21:10.922Z,101450.03
2022-08-23T03:23:38.096Z,101461.06
2022-08-23T03:26:05.635Z,101464.31
2022-08-23T03:28:33.826Z,101461.19
2022-08-23T03:31:00.770Z,101459.34
2022-08-23T03:33:27.681Z,101468.59
2022-08-23T03:35:59.287Z,101468.28
2022-08-23T03:38:26.187Z,101471.56
2022-08-23T03:40:54.100Z,101474.69
2022-08-23T03:43:21.168Z,101469.34
2022-08-23T03:45:48.230Z,101469.34
2022-08-23T03:48:15.069Z,101476.03
2022-08-23T03:50:41.992Z,101481.81
2022-08-23T03:53:09.130Z,101476.84
2022-08-23T03:55:42.253Z,101488.44
2022-08-23T03:58:10.296Z,101471.75
2022-08-23T04:00:37.271Z,101448.34
2022-08-23T04:03:04.331Z,101468.13
2022-08-23T04:05:31.226Z,101477.44
2022-08-23T04:07:58.261Z,101470.31
2022-08-23T04:10:25.328Z,101478.78
2022-08-23T04:12:55.148Z,101474.31
2022-08-23T04:15:22.427Z,101475.13
2022-08-23T04:17:49.396Z,101455.03
2022-08-23T04:20:16.408Z,101473.47
2022-08-23T04:22:43.345Z,101442.00
2022-08-23T04:25:33.995Z,101481.72
2022-08-23T04:28:00.031Z,101469.00
2022-08-23T04:30:27.306Z,101469.84
2022-08-23T04:32:54.230Z,101454.69
2022-08-23T04:35:22.573Z,101458.94
2022-08-23T04:37:49.675Z,101480.94
2022-08-23T04:40:35.227Z,101470.91
2022-08-23T04:43:02.447Z,101465.19
2022-08-23T04:45:30.270Z,101466.84
2022-08-23T04:47:57.215Z,101463.34
2022-08-23T04:50:24.116Z,101464.44
2022-08-23T04:52:51.027Z,101473.66
2022-08-23T04:55:17.939Z,101469.16
2022-08-23T04:57:45.900Z,101464.84
2022-08-23T05:00:14.270Z,101472.47
2022-08-23T05:02:41.127Z,101474.91
2022-08-23T05:05:10.590Z,101472.47
2022-08-23T05:07:41.578Z,101468.38
2022-08-23T05:10:10.651Z,101469.25
2022-08-23T05:12:37.480Z,101456.13
2022-08-23T05:15:04.727Z,101472.16
2022-08-23T05:17:31.589Z,101456.75
2022-08-23T05:19:58.456Z,101465.97
2022-08-23T05:22:25.368Z,101478.91
2022-08-23T05:24:52.233Z,101470.31
2022-08-23T05:27:19.100Z,101473.97
2022-08-23T05:29:46.125Z,101479.13
2022-08-23T05:32:12.971Z,101474.41
2022-08-23T05:34:39.889Z,101477.94
2022-08-23T05:37:06.735Z,101477.75
2022-08-23T05:39:36.329Z,101474.66
2022-08-23T05:42:05.768Z,101469.72
2022-08-23T05:44:36.331Z,101473.66
2022-08-23T05:47:11.428Z,101487.09
2022-08-23T05:49:39.182Z,101474.91
2022-08-23T05:52:07.067Z,101479.53
2022-08-23T05:54:34.496Z,101475.66
2022-08-23T05:57:01.391Z,101485.78
2022-08-23T05:59:28.268Z,101482.25
2022-08-23T06:01:55.163Z,101474.06
2022-08-23T06:04:22.047Z,101484.53
2022-08-23T06:06:49.013Z,101466.63
2022-08-23T06:09:16.794Z,101471.47
2022-08-23T06:11:45.249Z,101471.91
2022-08-23T06:14:12.355Z,101470.84
2022-08-23T06:16:43.722Z,101473.09
2022-08-23T06:19:10.868Z,101481.66
2022-08-23T06:21:38.601Z,101488.66
2022-08-23T06:24:05.850Z,101491.44
2022-08-23T06:26:35.110Z,101493.53
2022-08-23T06:29:04.133Z,101496.44
2022-08-23T06:31:49.370Z,101500.34
2022-08-23T06:34:20.673Z,101501.16
2022-08-23T06:36:49.173Z,101496.66
2022-08-23T06:39:17.122Z,101499.53
2022-08-23T06:41:44.338Z,101495.22
2022-08-23T06:44:11.246Z,101492.94
2022-08-23T06:46:38.715Z,101511.03
2022-08-23T06:49:07.084Z,101503.81
2022-08-23T06:52:00.849Z,101509.31
2022-08-23T06:54:29.307Z,101512.72
2022-08-23T06:56:56.492Z,101498.38
2022-08-23T06:59:23.632Z,101504.03
2022-08-23T07:01:58.043Z,101499.88
2022-08-23T07:04:27.368Z,101502.28
2022-08-23T07:06:54.248Z,101503.09
2022-08-23T07:09:21.221Z,101493.97
2022-08-23T07:11:48.112Z,101502.03
2022-08-23T07:14:16.874Z,101503.59
2022-08-23T07:16:50.549Z,101488.34
2022-08-23T07:19:19.110Z,101500.19
2022-08-23T07:21:45.943Z,101502.97
2022-08-23T07:24:16.726Z,101499.41
2022-08-23T07:26:45.416Z,101502.84
2022-08-23T07:29:12.555Z,101526.22
2022-08-23T07:31:44.196Z,101519.91
2022-08-23T07:34:11.306Z,101517.72
2022-08-23T07:36:39.150Z,101521.81
2022-08-23T07:39:06.575Z,101516.56
2022-08-23T07:41:33.688Z,101513.75
2022-08-23T07:44:04.009Z,101518.41
2022-08-23T07:46:33.043Z,101518.03
2022-08-23T07:49:00.649Z,101516.56
2022-08-23T07:51:28.709Z,101514.56
2022-08-23T07:53:55.610Z,101514.84
2022-08-23T07:56:22.574Z,101522.16
2022-08-23T07:58:50.232Z,101528.56
2022-08-23T08:01:19.717Z,101520.72
2022-08-23T08:03:47.988Z,101527.38
2022-08-23T08:06:17.388Z,101529.69
2022-08-23T08:08:44.741Z,101533.44
2022-08-23T08:11:12.570Z,101526.53
2022-08-23T08:13:43.114Z,101535.38
2022-08-23T08:16:10.616Z,101533.19
2022-08-23T08:18:37.788Z,101533.38
2022-08-23T08:21:05.348Z,101547.84
2022-08-23T08:23:32.249Z,101535.34
2022-08-23T08:26:01.411Z,101542.16
2022-08-23T08:28:28.449Z,101535.56
2022-08-23T08:30:55.408Z,101536.28
2022-08-23T08:33:22.315Z,101547.72
2022-08-23T08:35:57.412Z,101544.50
2022-08-23T08:38:27.816Z,101546.31
2022-08-23T08:41:15.655Z,101547.53
2022-08-23T08:44:30.133Z,101538.59
2022-08-23T08:46:57.387Z,101533.53
2022-08-23T08:49:33.125Z,101540.16
2022-08-23T08:52:21.418Z,101538.97
2022-08-23T08:54:49.903Z,101523.91
2022-08-23T08:57:25.352Z,101525.00
2022-08-23T09:00:12.778Z,101526.94
2022-08-23T09:02:39.738Z,101516.50
2022-08-23T09:05:12.312Z,101521.34
2022-08-23T09:07:54.871Z,101524.69
2022-08-23T09:10:44.486Z,101528.75
2022-08-23T09:13:45.442Z,101529.19
2022-08-23T09:16:37.669Z,101528.13
2022-08-23T09:19:04.889Z,101513.81
2022-08-23T09:21:38.832Z,101519.44
2022-08-23T09:24:05.852Z,101529.28
2022-08-23T09:26:32.847Z,101527.53
2022-08-23T09:29:23.012Z,101524.06
2022-08-23T09:31:58.613Z,101528.94
2022-08-23T09:34:37.386Z,101528.03
2022-08-23T09:37:13.395Z,101533.34
2022-08-23T09:39:43.091Z,101533.09
2022-08-23T09:42:29.968Z,101532.81
2022-08-23T09:44:57.386Z,101525.53
2022-08-23T09:47:33.387Z,101518.34
2022-08-23T09:50:15.815Z,101528.97
2022-08-23T09:52:42.825Z,101536.06
2022-08-23T09:55:12.272Z,101549.88
2022-08-23T09:57:39.692Z,101543.38
2022-08-23T10:00:25.412Z,101536.88
2022-08-23T10:02:57.463Z,101535.44
2022-08-23T10:05:37.987Z,101549.19
2022-08-23T10:08:08.775Z,101535.09
2022-08-23T10:10:37.281Z,101535.97
2022-08-23T10:13:05.324Z,101535.19
2022-08-23T10:15:46.401Z,101541.16
2022-08-23T10:18:28.928Z,101540.34
2022-08-23T10:21:20.936Z,101538.25
2022-08-23T10:23:53.871Z,101534.25
2022-08-23T10:27:00.229Z,101541.63
2022-08-23T10:29:38.810Z,101544.44
2022-08-23T10:32:24.450Z,101543.66
2022-08-23T10:35:15.030Z,101535.31
2022-08-23T10:38:03.673Z,101536.38
2022-08-23T10:41:22.060Z,101544.34
2022-08-23T10:44:07.454Z,101542.31
2022-08-23T10:46:38.061Z,101534.59
2022-08-23T10:49:04.999Z,101534.00
2022-08-23T10:51:37.688Z,101533.16
2022-08-23T10:54:13.752Z,101542.31
2022-08-23T10:56:48.641Z,101540.91
2022-08-23T10:59:24.153Z,101534.22
2022-08-23T11:02:09.561Z,101540.69
2022-08-23T11:04:50.030Z,101538.59
2022-08-23T11:07:20.713Z,101543.00
2022-08-23T11:10:16.615Z,101538.53
2022-08-23T11:13:13.030Z,101544.59
2022-08-23T11:15:44.846Z,101547.34
2022-08-23T11:18:36.351Z,101542.16
2022-08-23T11:21:39.932Z,101543.22
2022-08-23T11:24:06.768Z,101534.75
2022-08-23T11:26:41.383Z,101531.91
2022-08-23T11:29:08.225Z,101534.50
2022-08-23T11:31:36.108Z,101534.97
2022-08-23T11:34:19.765Z,101533.03
2022-08-23T11:37:19.931Z,101536.81
2022-08-23T11:39:59.110Z,101532.50
2022-08-23T11:42:30.398Z,101528.31
2022-08-23T11:44:57.380Z,101531.94
2022-08-23T11:47:42.672Z,101525.69
2022-08-23T11:50:26.170Z,101534.00
2022-08-23T11:53:08.287Z,101534.38
2022-08-23T11:55:58.270Z,101528.88
2022-08-23T11:58:45.777Z,101522.94
2022-08-23T12:01:13.850Z,101519.88
2022-08-23T12:03:57.103Z,101534.91
2022-08-23T12:06:51.267Z,101535.03
2022-08-23T12:09:24.205Z,101532.72
2022-08-23T12:11:56.915Z,101532.63
2022-08-23T12:14:57.374Z,101523.94
2022-08-23T12:17:28.649Z,101520.38
2022-08-23T12:20:07.028Z,101520.69
2022-08-23T12:23:02.619Z,101519.69
2022-08-23T12:25:31.317Z,101524.50
2022-08-23T12:28:14.332Z,101525.56
2022-08-23T12:31:00.049Z,101517.22
2022-08-23T12:33:51.419Z,101522.84
2022-08-23T12:36:20.615Z,101510.19
2022-08-23T12:39:05.789Z,101521.69
2022-08-23T12:41:44.122Z,101523.88
2022-08-23T12:44:11.028Z,101509.03
2022-08-23T12:46:43.490Z,101513.69
2022-08-23T12:49:22.429Z,101513.06
2022-08-23T12:51:50.147Z,101504.03
2022-08-23T12:54:19.571Z,101507.66
2022-08-23T12:56:51.189Z,101518.19
2022-08-23T12:59:47.345Z,101519.53
2022-08-23T13:02:24.860Z,101513.69
2022-08-23T13:04:51.829Z,101525.47
2022-08-23T13:07:21.507Z,101513.41
2022-08-23T13:09:53.169Z,101515.06
2022-08-23T13:12:21.187Z,101519.81
2022-08-23T13:14:49.909Z,101520.06
2022-08-23T13:17:22.886Z,101513.31
2022-08-23T13:19:51.767Z,101506.25
2022-08-23T13:22:19.293Z,101507.03
2022-08-23T13:25:24.768Z,101514.47
2022-08-23T13:27:48.010Z,101514.16
2022-08-23T13:30:14.729Z,101515.22
2022-08-23T13:32:49.440Z,101504.13
2022-08-23T13:35:36.377Z,101512.16
2022-08-23T13:38:21.398Z,101515.63
2022-08-23T13:41:10.365Z,101492.50
2022-08-23T13:43:55.625Z,101499.41
2022-08-23T13:46:29.756Z,101492.78
2022-08-23T13:49:13.669Z,101499.56
2022-08-23T13:51:47.629Z,101490.50
2022-08-23T13:54:15.430Z,101503.25
2022-08-23T13:56:53.513Z,101499.25
2022-08-23T13:59:26.939Z,101505.72
2022-08-23T14:02:03.910Z,101508.03
2022-08-23T14:04:31.165Z,101508.19
2022-08-23T14:06:58.284Z,101505.72
2022-08-23T14:09:25.232Z,101503.81
2022-08-23T14:11:54.628Z,101490.28
2022-08-23T14:14:21.608Z,101502.44
2022-08-23T14:16:48.569Z,101497.66
2022-08-23T14:19:16.778Z,101494.16
2022-08-23T14:22:02.292Z,101506.34
2022-08-23T14:24:29.227Z,101509.34
2022-08-23T14:26:56.369Z,101500.38
2022-08-23T14:29:24.289Z,101499.09
2022-08-23T14:31:51.758Z,101501.59
2022-08-23T14:34:19.075Z,101492.25
2022-08-23T14:39:33.166Z,101492.31
2022-08-23T14:42:00.056Z,101490.34
2022-08-23T14:44:31.610Z,101499.44
2022-08-23T14:47:00.490Z,101485.72
2022-08-23T14:49:27.457Z,101488.91
2022-08-23T14:51:54.346Z,101490.50
2022-08-23T14:54:23.324Z,101503.56
2022-08-23T14:56:50.270Z,101509.09
2022-08-23T14:59:17.388Z,101521.25
2022-08-23T15:01:45.015Z,101525.06
2022-08-23T15:04:12.144Z,101508.41
2022-08-23T15:06:54.922Z,101511.28
2022-08-23T15:09:27.870Z,101516.22
2022-08-23T15:14:41.988Z,101521.88
2022-08-23T15:17:08.855Z,101518.34
2022-08-23T15:19:35.672Z,101531.69
2022-08-23T15:22:18.444Z,101542.72
2022-08-23T15:24:48.412Z,101554.06
2022-08-23T15:27:15.327Z,101554.13
2022-08-23T15:29:42.211Z,101537.38
2022-08-23T15:32:10.158Z,101543.63
2022-08-23T15:34:40.138Z,101555.31
2022-08-23T15:37:12.620Z,101554.66
2022-08-23T15:39:39.558Z,101565.69
2022-08-23T15:42:06.888Z,101563.72
2022-08-23T15:44:33.788Z,101567.69
2022-08-23T15:47:00.651Z,101570.81
2022-08-23T15:49:27.726Z,101558.28
2022-08-23T15:51:54.603Z,101563.88
2022-08-23T15:54:21.495Z,101548.22
2022-08-23T15:56:50.098Z,101570.88
2022-08-23T15:59:17.745Z,101556.28
2022-08-23T16:01:44.851Z,101561.41
2022-08-23T16:04:11.938Z,101565.72
2022-08-23T16:06:39.578Z,101573.94
2022-08-23T16:09:09.136Z,101575.19
2022-08-23T16:11:39.489Z,101576.59
2022-08-23T16:14:06.327Z,101571.44
2022-08-23T16:16:36.863Z,101569.78
2022-08-23T16:19:03.828Z,101582.31
2022-08-23T16:21:34.329Z,101582.91
2022-08-23T16:24:01.273Z,101573.63
2022-08-23T16:26:35.251Z,101565.78
2022-08-23T16:29:02.710Z,101577.50
2022-08-23T16:31:38.840Z,101575.66
2022-08-23T16:34:14.393Z,101565.16
2022-08-23T16:36:43.601Z,101557.31
2022-08-23T16:39:13.170Z,101564.75
2022-08-23T16:41:40.067Z,101559.38
2022-08-23T16:44:07.648Z,101564.31
2022-08-23T16:46:35.369Z,101562.84
2022-08-23T16:49:02.570Z,101564.06
2022-08-23T16:51:29.652Z,101558.09
2022-08-23T16:54:02.114Z,101563.00
2022-08-23T16:56:31.847Z,101559.91
2022-08-23T16:58:59.150Z,101567.91
2022-08-23T17:01:26.250Z,101569.13
2022-08-23T17:03:53.184Z,101575.91
2022-08-23T17:06:20.087Z,101568.91
2022-08-23T17:08:47.112Z,101580.19
2022-08-23T17:11:14.997Z,101577.09
2022-08-23T17:13:41.933Z,101600.50
2022-08-23T17:16:09.228Z,101610.56
2022-08-23T17:18:36.968Z,101610.91
2022-08-23T17:21:04.737Z,101621.38
2022-08-23T17:23:31.712Z,101631.84
2022-08-23T17:25:59.496Z,101637.19
2022-08-23T17:28:26.415Z,101646.00
2022-08-23T17:30:54.687Z,101639.22
2022-08-23T17:33:22.674Z,101640.25
2022-08-23T17:35:49.626Z,101650.97
2022-08-23T17:38:16.567Z,101664.09
2022-08-23T17:40:43.427Z,101679.47
2022-08-23T17:43:12.176Z,101707.81
2022-08-23T17:45:46.583Z,101738.78
2022-08-23T17:48:13.953Z,101746.34
2022-08-23T17:50:41.446Z,101740.19
2022-08-23T17:53:08.310Z,101750.88
2022-08-23T17:55:35.630Z,101756.41
2022-08-23T17:58:04.263Z,101762.13
2022-08-23T18:00:32.608Z,101754.88
2022-08-23T18:02:59.681Z,101752.94
2022-08-23T18:05:27.051Z,101746.19
2022-08-23T18:07:53.929Z,101743.06
2022-08-23T18:10:20.907Z,101717.53
2022-08-23T18:12:47.788Z,101710.13
2022-08-23T18:15:14.691Z,101710.13
2022-08-23T18:17:41.689Z,101690.97
2022-08-23T18:20:10.729Z,101679.28
2022-08-23T18:22:38.070Z,101672.47
2022-08-23T18:25:08.118Z,101665.25
2022-08-23T18:27:53.290Z,101664.81
2022-08-23T18:30:20.912Z,101657.38
2022-08-23T18:32:47.806Z,101654.28
2022-08-23T18:35:15.075Z,101658.41
2022-08-23T18:37:42.228Z,101653.06
2022-08-23T18:40:10.439Z,101642.19
2022-08-23T18:42:37.623Z,101653.72
2022-08-23T18:45:05.413Z,101644.44
2022-08-23T18:47:32.317Z,101652.06
2022-08-23T18:49:59.237Z,101646.94
2022-08-23T18:52:27.670Z,101629.59
2022-08-23T18:54:57.970Z,101624.00
2022-08-23T18:57:24.917Z,101640.50
2022-08-23T18:59:51.787Z,101630.06
2022-08-23T19:02:19.640Z,101612.53
2022-08-23T19:04:46.698Z,101625.75
2022-08-23T19:07:13.674Z,101623.91
2022-08-23T19:09:40.573Z,101613.34
2022-08-23T19:12:07.978Z,101620.41
2022-08-23T19:14:35.833Z,101624.47
2022-08-23T19:17:03.810Z,101618.50
2022-08-23T19:19:30.742Z,101630.88
2022-08-23T19:21:58.472Z,101625.09
2022-08-23T19:24:25.368Z,101617.25
2022-08-23T19:26:52.721Z,101623.19
2022-08-23T19:29:20.702Z,101629.16
2022-08-23T19:31:48.632Z,101632.22
2022-08-23T19:34:16.787Z,101627.91
2022-08-23T19:36:47.030Z,101636.34
2022-08-23T19:39:17.851Z,101644.13
2022-08-23T19:41:44.854Z,101645.53
2022-08-23T19:44:11.809Z,101641.59
2022-08-23T19:46:41.897Z,101648.13
2022-08-23T19:49:09.730Z,101659.03
2022-08-23T19:51:36.817Z,101667.88
2022-08-23T19:54:04.668Z,101681.19
2022-08-23T19:56:43.487Z,101683.84
2022-08-23T19:59:13.871Z,101684.03
2022-08-23T20:01:40.894Z,101679.50
2022-08-23T20:04:07.844Z,101687.78
2022-08-23T20:06:35.705Z,101678.31
2022-08-23T20:09:02.864Z,101679.41
2022-08-23T20:11:32.046Z,101678.75
2022-08-23T20:14:00.252Z,101674.47
2022-08-23T20:16:28.011Z,101676.56
2022-08-23T20:18:55.321Z,101679.03
2022-08-23T20:21:23.673Z,101677.19
2022-08-23T20:24:04.437Z,101654.34
2022-08-23T20:26:32.086Z,101671.88
2022-08-23T20:29:00.274Z,101678.84
2022-08-23T20:31:33.230Z,101674.53
2022-08-23T20:34:00.489Z,101685.38
2022-08-23T20:36:28.309Z,101681.25
2022-08-23T20:38:58.370Z,101673.38
2022-08-23T20:41:26.497Z,101675.84
2022-08-23T20:43:55.648Z,101681.63
2022-08-23T20:46:22.705Z,101681.63
2022-08-23T20:48:51.577Z,101677.50
2022-08-23T20:51:18.774Z,101663.53
2022-08-23T20:53:46.555Z,101663.53
2022-08-23T20:56:13.589Z,101666.41
2022-08-23T20:58:40.513Z,101667.88
2022-08-23T21:01:09.327Z,101667.59
2022-08-23T21:03:38.487Z,101679.13
2022-08-23T21:06:09.620Z,101677.28
2022-08-23T21:08:42.009Z,101669.50
2022-08-23T21:11:10.639Z,101671.97
2022-08-23T21:13:41.332Z,101675.66
2022-08-23T21:16:08.435Z,101657.69
2022-08-23T21:18:35.368Z,101669.63
2022-08-23T21:21:02.240Z,101669.06
2022-08-23T21:23:29.156Z,101671.91
2022-08-23T21:25:56.892Z,101671.28
2022-08-23T21:28:24.286Z,101659.53
2022-08-23T21:30:51.188Z,101668.09
2022-08-23T21:33:18.236Z,101667.38
2022-08-23T21:35:45.053Z,101659.84
2022-08-23T21:38:12.032Z,101657.66
2022-08-23T21:40:38.858Z,101676.84
2022-08-23T21:43:05.787Z,101674.75
2022-08-23T21:45:32.733Z,101670.97
2022-08-23T21:48:01.473Z,101674.00
2022-08-23T21:50:28.560Z,101667.16
2022-08-23T21:52:56.633Z,101659.69
2022-08-23T21:55:30.081Z,101661.44
2022-08-23T21:58:03.370Z,101681.81
2022-08-23T22:00:30.249Z,101669.81
2022-08-23T22:02:57.266Z,101667.25
2022-08-23T22:05:24.256Z,101666.44
2022-08-23T22:07:52.024Z,101671.53
2022-08-23T22:10:18.907Z,101689.19
2022-08-23T22:12:45.888Z,101694.31
2022-08-23T22:15:13.048Z,101687.25
2022-08-23T22:17:39.973Z,101684.75
2022-08-23T22:20:07.671Z,101673.59
2022-08-23T22:22:34.581Z,101666.34
2022-08-23T22:25:01.690Z,101682.56
2022-08-23T22:27:28.637Z,101678.97
2022-08-23T22:29:55.570Z,101687.91
2022-08-23T22:32:22.908Z,101688.16
2022-08-23T22:34:49.860Z,101686.41
2022-08-23T22:37:16.766Z,101688.25
2022-08-23T22:39:43.734Z,101673.72
2022-08-23T22:42:10.629Z,101666.28
2022-08-23T22:44:38.032Z,101679.59
2022-08-23T22:47:05.088Z,101681.78
2022-08-23T22:49:31.974Z,101663.41
2022-08-23T22:51:58.871Z,101654.31
2022-08-23T22:54:26.045Z,101677.34
2022-08-23T22:56:53.148Z,101670.63
2022-08-23T22:59:21.709Z,101662.41
2022-08-23T23:01:54.923Z,101663.91
2022-08-23T23:04:26.452Z,101663.41
2022-08-23T23:06:54.007Z,101666.44
2022-08-23T23:09:21.088Z,101676.16
2022-08-23T23:11:47.927Z,101674.63
2022-08-23T23:14:15.931Z,101666.13
2022-08-23T23:16:42.948Z,101665.47
2022-08-23T23:19:28.529Z,101678.88
2022-08-23T23:21:56.756Z,101673.91
2022-08-23T23:24:26.312Z,101666.47
2022-08-23T23:26:53.198Z,101675.47
2022-08-23T23:29:20.105Z,101685.09
2022-08-23T23:31:47.032Z,101694.88
2022-08-23T23:34:13.929Z,101667.25
2022-08-23T23:36:41.189Z,101677.34
2022-08-23T23:39:08.708Z,101681.47
2022-08-23T23:41:35.649Z,101688.91
2022-08-23T23:44:02.649Z,101688.38
2022-08-23T23:46:29.494Z,101691.50
2022-08-23T23:48:56.349Z,101687.19
2022-08-23T23:51:28.675Z,101678.94
2022-08-23T23:53:56.201Z,101687.38
2022-08-23T23:56:23.445Z,101680.78
2022-08-23T23:58:51.988Z,101684.06
